Time;durP1;ratioP1;P1;durP2;ratioP2;P2;SDS_P1;SDS_P2;PMS_P1;PMS_P2;Temp;Humidity;BMP_temperature;BMP_pressure;BME280_temperature;BME280_humidity;BME280_pressure;Samples;Min_cycle;Max_cycle;Signal;HPM_P1;HPM_P2
2021/06/13 00:01:06;;;;;;;14.53;5.40;;;;;;;14.21;60.11;101230.19;5042955;28;20474;-70
2021/06/13 00:03:33;;;;;;;10.93;5.20;;;;;;;14.16;59.77;101229.75;5044226;28;20550;-69
2021/06/13 00:05:59;;;;;;;13.80;4.60;;;;;;;14.09;60.71;101226.75;5042949;28;20565;-70
2021/06/13 00:08:25;;;;;;;11.20;5.17;;;;;;;14.11;60.17;101230.16;5044497;28;20462;-69
2021/06/13 00:10:51;;;;;;;11.73;4.80;;;;;;;14.00;60.14;101238.38;5042238;28;20481;-69
2021/06/13 00:13:18;;;;;;;9.93;4.70;;;;;;;13.86;60.44;101236.91;5043349;28;20438;-67
2021/06/13 00:15:45;;;;;;;7.00;4.70;;;;;;;13.87;60.35;101241.28;5042447;28;21001;-68
2021/06/13 00:18:11;;;;;;;18.70;5.20;;;;;;;13.75;60.50;101240.56;5043077;28;20802;-67
2021/06/13 00:20:37;;;;;;;13.77;5.37;;;;;;;13.80;60.39;101245.50;5042427;28;20569;-66
2021/06/13 00:23:04;;;;;;;8.80;5.13;;;;;;;13.64;60.61;101241.50;5043741;28;20461;-67
2021/06/13 00:25:30;;;;;;;10.40;5.07;;;;;;;13.56;60.54;101239.50;5042057;28;21145;-66
2021/06/13 00:27:56;;;;;;;8.60;4.33;;;;;;;13.68;61.31;101252.81;5043593;28;20498;-67
2021/06/13 00:30:26;;;;;;;14.40;5.30;;;;;;;13.59;61.09;101259.03;5042761;28;20500;-67
2021/06/13 00:32:52;;;;;;;9.47;5.33;;;;;;;13.56;60.98;101250.25;5043230;28;20482;-67
2021/06/13 00:35:20;;;;;;;8.87;4.80;;;;;;;13.64;61.02;101246.03;5042273;28;20549;-67
2021/06/13 00:37:46;;;;;;;9.20;5.57;;;;;;;13.39;61.33;101253.59;5042840;28;21042;-65
2021/06/13 00:40:14;;;;;;;12.87;5.20;;;;;;;13.45;61.49;101249.50;5042238;28;20502;-67
2021/06/13 00:42:40;;;;;;;12.00;5.37;;;;;;;13.56;61.20;101241.34;5043149;28;20459;-65
2021/06/13 00:45:08;;;;;;;8.60;4.90;;;;;;;13.54;61.77;101244.19;5042156;28;20460;-65
2021/06/13 00:47:36;;;;;;;8.93;4.87;;;;;;;13.38;61.94;101246.50;5042301;28;20494;-65
2021/06/13 00:50:03;;;;;;;11.67;4.87;;;;;;;13.41;61.53;101251.59;5042500;28;20505;-65
2021/06/13 00:52:29;;;;;;;14.40;5.10;;;;;;;13.33;62.41;101257.66;5042072;28;20539;-65
2021/06/13 00:54:55;;;;;;;13.60;5.10;;;;;;;13.30;62.07;101252.50;5042376;28;20484;-65
2021/06/13 00:57:21;;;;;;;12.30;5.27;;;;;;;13.28;62.51;101256.31;5042119;28;20517;-67
2021/06/13 00:59:47;;;;;;;11.50;5.50;;;;;;;13.14;62.70;101250.31;5042446;28;20815;-68
2021/06/13 01:02:13;;;;;;;12.43;5.00;;;;;;;13.25;62.80;101256.59;5041751;28;20474;-68
2021/06/13 01:04:41;;;;;;;9.43;4.83;;;;;;;13.30;62.53;101265.94;5042988;28;21034;-66
2021/06/13 01:07:10;;;;;;;10.73;4.43;;;;;;;13.23;62.93;101270.16;5042182;28;20492;-66
2021/06/13 01:09:42;;;;;;;8.37;4.40;;;;;;;13.20;62.99;101265.03;5043065;28;20521;-66
2021/06/13 01:12:10;;;;;;;10.03;5.03;;;;;;;13.14;63.52;101268.25;5040824;28;20918;-66
2021/06/13 01:14:39;;;;;;;12.47;5.90;;;;;;;13.08;64.00;101261.56;5042470;28;20442;-66
2021/06/13 01:17:11;;;;;;;11.43;5.50;;;;;;;13.17;64.02;101271.50;5041300;28;20585;-66
2021/06/13 01:19:51;;;;;;;13.33;5.57;;;;;;;13.17;63.77;101281.41;5042608;28;20501;-66
2021/06/13 01:22:45;;;;;;;8.80;4.83;;;;;;;13.05;64.29;101271.72;5041876;28;20612;-66
2021/06/13 01:25:22;;;;;;;14.53;5.87;;;;;;;12.92;65.35;101280.00;5040439;28;20477;-66
2021/06/13 01:28:05;;;;;;;10.93;5.40;;;;;;;13.18;64.84;101277.75;5042444;28;20533;-66
2021/06/13 01:30:34;;;;;;;10.47;5.03;;;;;;;13.12;64.27;101278.25;5041401;28;21199;-67
2021/06/13 01:33:03;;;;;;;10.50;5.07;;;;;;;12.93;65.02;101287.91;5042056;28;20497;-67
2021/06/13 01:35:30;;;;;;;12.30;5.57;;;;;;;12.66;65.91;101282.19;5041029;28;20494;-67
2021/06/13 01:37:56;;;;;;;9.07;5.63;;;;;;;12.56;66.33;101282.09;5042820;28;20462;-68
2021/06/13 01:40:26;;;;;;;8.70;5.50;;;;;;;12.63;66.39;101286.81;5041821;28;20470;-65
2021/06/13 01:42:54;;;;;;;12.40;6.20;;;;;;;12.55;66.42;101297.34;5042691;28;20498;-65
2021/06/13 01:45:22;;;;;;;11.60;6.23;;;;;;;12.53;66.74;101288.56;5041339;28;21034;-66
2021/06/13 01:47:51;;;;;;;10.73;7.50;;;;;;;12.44;67.48;101289.34;5041253;28;20492;-66
2021/06/13 01:50:17;;;;;;;8.97;5.67;;;;;;;12.40;67.11;101295.94;5043472;28;20481;-66
2021/06/13 01:52:47;;;;;;;11.27;5.33;;;;;;;12.37;67.11;101293.50;5046133;28;20504;-67
2021/06/13 01:55:14;;;;;;;11.07;6.10;;;;;;;12.29;67.47;101288.78;5045481;28;20488;-66
2021/06/13 01:57:41;;;;;;;10.10;6.23;;;;;;;12.33;67.48;101292.06;5045354;28;20472;-66
2021/06/13 02:00:10;;;;;;;12.07;5.47;;;;;;;12.30;67.84;101303.88;5045966;28;20438;-67
2021/06/13 02:02:36;;;;;;;9.17;5.70;;;;;;;12.27;67.99;101297.91;5045857;28;20472;-66
2021/06/13 02:05:05;;;;;;;9.47;5.10;;;;;;;12.29;67.75;101304.88;5045773;28;20801;-66
2021/06/13 02:07:35;;;;;;;12.73;5.90;;;;;;;12.20;68.13;101295.75;5045480;28;20535;-66
2021/06/13 02:10:04;;;;;;;12.57;5.77;;;;;;;12.04;68.79;101295.28;5046025;28;20485;-66
2021/06/13 02:12:31;;;;;;;15.47;6.13;;;;;;;12.15;68.36;101295.28;5045127;28;20496;-66
2021/06/13 02:14:58;;;;;;;11.80;5.70;;;;;;;12.15;68.38;101303.31;5045611;28;20489;-66
2021/06/13 02:17:24;;;;;;;12.53;6.17;;;;;;;12.00;68.44;101302.72;5044374;28;20549;-66
2021/06/13 02:19:50;;;;;;;14.23;6.27;;;;;;;12.04;68.86;101297.97;5045254;28;20512;-66
2021/06/13 02:22:19;;;;;;;9.30;5.37;;;;;;;12.09;68.79;101302.97;5045266;28;20517;-66
2021/06/13 02:24:45;;;;;;;15.93;5.50;;;;;;;11.88;69.03;101296.50;5045034;28;20470;-66
2021/06/13 02:27:13;;;;;;;11.00;6.13;;;;;;;11.82;69.72;101286.28;5044823;28;20560;-66
2021/06/13 02:29:40;;;;;;;10.67;6.30;;;;;;;11.83;69.66;101292.47;5045890;28;20478;-66
2021/06/13 02:32:09;;;;;;;11.17;5.47;;;;;;;11.92;69.35;101289.09;5044725;28;20480;-66
2021/06/13 02:34:35;;;;;;;7.70;5.13;;;;;;;12.13;69.26;101296.38;5045478;28;20481;-66
2021/06/13 02:37:02;;;;;;;10.03;5.50;;;;;;;12.20;68.46;101297.56;5044287;28;20548;-66
2021/06/13 02:39:30;;;;;;;9.70;5.60;;;;;;;12.21;67.78;101293.91;5045995;28;20434;-66
2021/06/13 02:41:56;;;;;;;13.17;5.10;;;;;;;11.96;68.36;101289.69;5044647;28;20567;-66
2021/06/13 02:44:22;;;;;;;18.27;6.83;;;;;;;11.98;69.13;101296.66;5045108;28;20476;-66
2021/06/13 02:46:48;;;;;;;12.13;5.60;;;;;;;11.99;68.89;101295.66;5043812;28;20559;-64
2021/06/13 02:49:14;;;;;;;10.83;5.90;;;;;;;12.14;68.26;101298.94;5045382;28;20575;-68
2021/06/13 02:51:44;;;;;;;14.53;6.27;;;;;;;12.19;67.74;101302.09;5044124;28;20561;-68
2021/06/13 02:54:11;;;;;;;12.20;6.17;;;;;;;12.19;67.95;101304.78;5045287;28;20513;-66
2021/06/13 02:56:43;;;;;;;9.53;5.63;;;;;;;12.28;67.33;101308.53;5043884;28;20544;-66
2021/06/13 02:59:16;;;;;;;9.73;5.73;;;;;;;12.18;67.50;101310.25;5045114;28;20468;-68
2021/06/13 03:01:44;;;;;;;13.53;5.33;;;;;;;12.16;67.74;101310.38;5044113;28;20488;-67
2021/06/13 03:04:10;;;;;;;11.63;5.80;;;;;;;12.04;67.91;101308.69;5045113;28;20496;-67
2021/06/13 03:06:37;;;;;;;12.70;5.03;;;;;;;12.02;67.93;101308.81;5043622;28;20556;-67
2021/06/13 03:09:04;;;;;;;9.30;5.00;;;;;;;11.98;68.03;101304.69;5045482;28;20524;-67
2021/06/13 03:11:30;;;;;;;13.03;5.90;;;;;;;11.95;68.04;101304.09;5043633;28;20546;-67
2021/06/13 03:13:59;;;;;;;14.20;5.30;;;;;;;12.09;68.20;101314.53;5045390;28;20488;-67
2021/06/13 03:16:26;;;;;;;12.37;6.23;;;;;;;12.16;67.40;101310.38;5043955;28;20485;-64
2021/06/13 03:18:52;;;;;;;8.07;5.80;;;;;;;12.23;67.44;101318.78;5044705;28;20449;-67
2021/06/13 03:21:19;;;;;;;14.60;5.70;;;;;;;12.17;67.43;101325.50;5043920;28;20541;-67
2021/06/13 03:23:46;;;;;;;17.83;4.93;;;;;;;12.33;67.08;101325.09;5044309;28;20462;-68
2021/06/13 03:26:13;;;;;;;15.53;6.60;;;;;;;12.62;65.69;101338.78;5043523;28;20484;-68
2021/06/13 03:28:39;;;;;;;16.57;5.73;;;;;;;13.03;64.41;101330.06;5044860;28;20533;-65
2021/06/13 03:31:07;;;;;;;12.13;5.57;;;;;;;13.45;62.96;101343.53;5043828;28;20483;-66
2021/06/13 03:33:37;;;;;;;11.63;5.63;;;;;;;13.80;61.73;101337.78;5042677;28;20549;-66
2021/06/13 03:36:03;;;;;;;8.00;4.57;;;;;;;14.18;59.58;101340.72;5043475;28;20471;-66
2021/06/13 03:38:31;;;;;;;9.30;5.00;;;;;;;14.53;58.75;101347.44;5044771;28;20712;-66
2021/06/13 03:40:58;;;;;;;13.80;5.60;;;;;;;14.31;59.95;101350.25;5043553;28;20501;-66
2021/06/13 03:43:25;;;;;;;14.17;6.10;;;;;;;15.02;57.73;101348.38;5043877;28;20885;-66
2021/06/13 03:45:52;;;;;;;9.23;5.00;;;;;;;15.85;54.62;101359.41;5043410;28;20556;-65
2021/06/13 03:48:23;;;;;;;7.97;5.27;;;;;;;16.72;52.53;101359.91;5043291;28;20490;-67
2021/06/13 03:50:50;;;;;;;8.37;4.57;;;;;;;16.85;51.85;101360.41;5043371;28;20491;-66
2021/06/13 03:53:16;;;;;;;7.93;5.30;;;;;;;16.90;51.15;101360.78;5043302;28;20487;-67
2021/06/13 03:55:43;;;;;;;9.93;4.50;;;;;;;17.38;50.55;101358.66;5042874;28;20834;-67
2021/06/13 03:58:10;;;;;;;12.07;5.17;;;;;;;17.80;48.76;101355.19;5043807;28;20805;-67
2021/06/13 04:00:37;;;;;;;9.37;4.67;;;;;;;17.60;49.01;101362.69;5043479;28;20569;-66
2021/06/13 04:03:05;;;;;;;10.00;4.40;;;;;;;18.58;47.19;101364.16;5043335;28;20529;-67
2021/06/13 04:05:33;;;;;;;7.97;4.73;;;;;;;19.55;44.45;101358.94;5042526;28;20524;-66
2021/06/13 04:08:00;;;;;;;5.33;3.33;;;;;;;19.65;43.68;101364.16;5044240;28;20779;-67
2021/06/13 04:10:26;;;;;;;9.07;4.30;;;;;;;19.86;43.45;101366.34;5043213;28;20480;-68
2021/06/13 04:12:54;;;;;;;8.30;4.03;;;;;;;20.23;42.31;101376.56;5043066;28;20921;-68
2021/06/13 04:15:22;;;;;;;5.40;4.00;;;;;;;20.34;42.33;101371.75;5043069;28;20541;-68
2021/06/13 04:17:48;;;;;;;6.83;4.20;;;;;;;18.80;45.12;101377.06;5042655;28;20482;-67
2021/06/13 04:20:15;;;;;;;6.33;4.37;;;;;;;18.06;47.24;101376.81;5043128;28;20497;-67
2021/06/13 04:22:43;;;;;;;7.30;4.43;;;;;;;18.81;45.52;101386.88;5043240;28;20485;-68
2021/06/13 04:25:13;;;;;;;11.40;5.53;;;;;;;19.07;44.99;101380.50;5042157;28;20891;-69
2021/06/13 04:27:40;;;;;;;8.90;5.07;;;;;;;20.56;41.90;101384.53;5043054;28;20513;-69
2021/06/13 04:30:08;;;;;;;8.60;3.67;;;;;;;21.96;38.49;101370.63;5042947;28;20450;-69
2021/06/13 04:32:36;;;;;;;6.90;4.10;;;;;;;21.66;38.74;101368.94;5042696;28;20910;-70
2021/06/13 04:35:03;;;;;;;6.83;4.00;;;;;;;22.16;37.52;101368.16;5042919;28;20461;-69
2021/06/13 04:37:30;;;;;;;6.40;3.47;;;;;;;22.92;36.11;101378.69;5043306;28;20486;-69
2021/06/13 04:39:58;;;;;;;7.80;4.00;;;;;;;23.24;35.96;101375.66;5043194;28;20549;-69
2021/06/13 04:42:24;;;;;;;5.00;3.60;;;;;;;23.99;34.51;101386.91;5042707;28;20466;-69
2021/06/13 04:44:51;;;;;;;8.30;4.00;;;;;;;24.37;33.41;101390.06;5042822;28;20530;-69
2021/06/13 04:47:18;;;;;;;8.00;4.33;;;;;;;23.31;35.58;101385.59;5041456;28;20517;-69
2021/06/13 04:49:46;;;;;;;7.83;4.13;;;;;;;23.61;35.13;101384.53;5042766;28;21070;-69
2021/06/13 04:52:14;;;;;;;9.67;3.80;;;;;;;24.32;33.90;101392.56;5041994;28;20514;-68
2021/06/13 04:55:03;;;;;;;8.60;3.90;;;;;;;25.01;32.51;101387.94;5042364;28;20469;-67
2021/06/13 04:57:52;;;;;;;7.93;4.57;;;;;;;24.46;33.21;101392.59;5042074;28;20541;-67
2021/06/13 05:00:20;;;;;;;9.07;4.37;;;;;;;25.41;31.95;101389.88;5042089;28;20546;-68
2021/06/13 05:02:47;;;;;;;5.90;4.07;;;;;;;26.14;30.50;101387.03;5042534;28;20461;-67
2021/06/13 05:05:15;;;;;;;9.27;4.00;;;;;;;26.36;30.45;101381.25;5041819;28;20529;-68
2021/06/13 05:07:42;;;;;;;9.00;4.87;;;;;;;24.38;33.12;101390.91;5042688;28;20442;-67
2021/06/13 05:10:11;;;;;;;9.27;4.53;;;;;;;23.82;34.49;101391.88;5042173;28;20447;-67
2021/06/13 05:12:48;;;;;;;9.17;4.40;;;;;;;24.49;34.06;101400.41;5042220;28;20482;-68
2021/06/13 05:15:16;;;;;;;9.27;4.10;;;;;;;24.87;33.04;101400.75;5041551;28;20473;-68
2021/06/13 05:17:43;;;;;;;10.33;4.90;;;;;;;24.60;33.49;101400.69;5041590;28;20470;-67
2021/06/13 05:20:11;;;;;;;9.07;4.40;;;;;;;24.65;33.22;101389.16;5041919;28;20482;-67
2021/06/13 05:22:53;;;;;;;6.23;3.90;;;;;;;24.85;33.51;101397.38;5042560;28;20525;-68
2021/06/13 05:25:21;;;;;;;10.17;4.03;;;;;;;24.94;33.07;101407.06;5040352;28;20469;-68
2021/06/13 05:27:48;;;;;;;9.47;4.20;;;;;;;25.68;31.45;101416.19;5042743;28;20529;-68
2021/06/13 05:30:15;;;;;;;8.93;3.97;;;;;;;24.66;33.16;101412.69;5041569;28;20525;-68
2021/06/13 05:32:42;;;;;;;7.73;4.63;;;;;;;26.11;31.10;101420.38;5042064;28;20541;-68
2021/06/13 05:35:09;;;;;;;8.07;3.83;;;;;;;26.95;30.04;101418.50;5041080;28;20458;-68
2021/06/13 05:37:36;;;;;;;5.87;4.43;;;;;;;26.23;30.40;101420.50;5041927;28;20537;-68
2021/06/13 05:40:02;;;;;;;9.43;4.10;;;;;;;25.89;31.34;101426.06;5042898;28;20829;-68
2021/06/13 05:42:30;;;;;;;7.70;4.57;;;;;;;26.21;30.95;101425.38;5041358;28;20922;-67
2021/06/13 05:44:57;;;;;;;9.27;4.53;;;;;;;25.07;32.23;101422.69;5042410;28;20502;-67
2021/06/13 05:47:23;;;;;;;7.37;4.40;;;;;;;26.16;31.15;101420.56;5040751;28;20557;-68
2021/06/13 05:49:50;;;;;;;8.07;4.00;;;;;;;26.85;29.70;101429.13;5041780;28;20524;-67
2021/06/13 05:52:17;;;;;;;9.37;3.93;;;;;;;25.61;31.02;101429.06;5041607;28;20581;-68
2021/06/13 05:54:43;;;;;;;8.13;4.30;;;;;;;26.63;30.01;101434.09;5041513;28;20522;-67
2021/06/13 05:57:10;;;;;;;7.77;4.57;;;;;;;27.69;28.49;101429.78;5041384;28;20549;-67
2021/06/13 05:59:38;;;;;;;8.53;4.43;;;;;;;27.84;27.87;101436.84;5042331;28;20442;-68
2021/06/13 06:02:04;;;;;;;10.17;3.70;;;;;;;27.55;28.13;101434.56;5040944;28;20488;-67
2021/06/13 06:04:31;;;;;;;9.10;3.60;;;;;;;27.82;27.96;101444.47;5042038;28;20450;-67
2021/06/13 06:06:58;;;;;;;11.63;4.73;;;;;;;27.76;27.51;101448.97;5040910;28;20484;-68
2021/06/13 06:09:25;;;;;;;9.63;4.03;;;;;;;26.90;28.67;101448.50;5041956;28;20454;-68
2021/06/13 06:11:51;;;;;;;11.27;3.83;;;;;;;27.38;28.79;101458.16;5041220;28;20973;-67
2021/06/13 06:14:18;;;;;;;9.37;4.70;;;;;;;27.41;28.38;101447.56;5041912;28;20514;-68
2021/06/13 06:16:46;;;;;;;8.53;4.00;;;;;;;26.70;29.68;101458.75;5040483;28;20514;-70
2021/06/13 06:19:13;;;;;;;8.70;3.83;;;;;;;26.63;28.91;101459.63;5041984;28;20434;-69
2021/06/13 06:21:39;;;;;;;9.33;3.50;;;;;;;26.57;29.47;101459.63;5041182;28;20478;-69
2021/06/13 06:24:06;;;;;;;7.83;3.70;;;;;;;24.52;31.47;101454.69;5041002;28;20474;-69
2021/06/13 06:26:33;;;;;;;8.80;4.20;;;;;;;24.26;32.65;101461.69;5040937;28;20478;-67
2021/06/13 06:29:00;;;;;;;6.13;3.50;;;;;;;25.24;30.78;101469.66;5041771;28;20476;-68
2021/06/13 06:31:26;;;;;;;8.13;3.73;;;;;;;27.30;28.16;101467.50;5041276;28;20497;-68
2021/06/13 06:33:54;;;;;;;13.30;4.20;;;;;;;28.41;26.88;101465.00;5027585;28;20566;-68
2021/06/13 06:36:21;;;;;;;3.87;2.90;;;;;;;27.44;27.36;101454.50;5042550;28;20549;-68
2021/06/13 06:38:47;;;;;;;6.20;3.20;;;;;;;29.03;25.36;101466.78;5045708;28;20523;-68
2021/06/13 06:41:14;;;;;;;9.17;3.20;;;;;;;30.02;23.47;101472.59;5044561;28;20496;-69
2021/06/13 06:43:41;;;;;;;7.00;3.47;;;;;;;26.65;26.84;101468.50;5045547;28;20431;-69
2021/06/13 06:46:07;;;;;;;5.03;2.87;;;;;;;26.67;27.87;101476.50;5043949;28;20478;-66
2021/06/13 06:48:34;;;;;;;4.33;2.60;;;;;;;26.33;27.75;101463.94;5044835;28;20653;-67
2021/06/13 06:51:02;;;;;;;7.43;2.77;;;;;;;25.39;28.45;101469.47;5043847;28;20518;-67
2021/06/13 06:53:29;;;;;;;8.67;3.43;;;;;;;24.27;30.29;101474.31;5044098;28;20518;-67
2021/06/13 06:55:56;;;;;;;4.93;3.23;;;;;;;24.98;29.56;101476.75;5041498;28;20494;-66
2021/06/13 06:58:23;;;;;;;6.80;2.73;;;;;;;26.35;27.30;101472.78;5041734;28;20462;-66
2021/06/13 07:00:49;;;;;;;7.03;2.93;;;;;;;27.81;25.59;101476.59;5044001;28;20533;-67
2021/06/13 07:03:16;;;;;;;6.20;2.67;;;;;;;27.60;26.17;101486.06;5044099;28;20458;-67
2021/06/13 07:05:43;;;;;;;5.40;2.70;;;;;;;27.55;24.34;101485.91;5042200;28;20826;-67
2021/06/13 07:08:11;;;;;;;3.87;2.23;;;;;;;27.51;25.16;101493.75;5043596;28;20446;-66
2021/06/13 07:10:38;;;;;;;5.77;2.60;;;;;;;27.12;25.74;101489.38;5043416;28;20508;-66
2021/06/13 07:13:05;;;;;;;4.53;2.43;;;;;;;27.55;24.98;101491.41;5041895;28;20488;-66
2021/06/13 07:15:32;;;;;;;4.83;2.00;;;;;;;27.87;24.64;101486.69;5038949;28;20482;-67
2021/06/13 07:17:58;;;;;;;7.03;2.63;;;;;;;27.38;25.27;101488.38;5043017;28;20454;-67
2021/06/13 07:20:26;;;;;;;6.70;3.17;;;;;;;26.55;25.88;101491.94;5042155;28;20535;-67
2021/06/13 07:22:52;;;;;;;5.17;2.23;;;;;;;27.60;24.08;101489.69;5044129;28;20457;-68
2021/06/13 07:25:21;;;;;;;6.20;2.67;;;;;;;27.92;24.36;101495.13;5043293;28;20446;-67
2021/06/13 07:27:47;;;;;;;8.83;3.40;;;;;;;27.42;25.32;101495.94;5043395;28;20501;-67
2021/06/13 07:30:17;;;;;;;5.83;2.30;;;;;;;28.52;24.56;101497.25;5042326;28;21100;-67
2021/06/13 07:32:44;;;;;;;3.50;2.00;;;;;;;28.61;23.30;101502.47;5046081;28;21178;-67
2021/06/13 07:35:12;;;;;;;5.40;2.67;;;;;;;28.89;22.95;101499.97;5054266;28;20558;-69
2021/06/13 07:37:39;;;;;;;5.53;2.20;;;;;;;28.48;24.50;101503.44;5043120;28;20553;-68
2021/06/13 07:40:07;;;;;;;5.80;2.70;;;;;;;27.85;24.31;101507.22;5042871;28;20478;-67
2021/06/13 07:42:36;;;;;;;5.67;2.53;;;;;;;27.20;23.73;101516.53;5055603;28;20504;-68
2021/06/13 07:45:03;;;;;;;4.00;1.70;;;;;;;27.25;23.03;101511.22;5042854;28;20898;-68
2021/06/13 07:47:30;;;;;;;6.40;3.07;;;;;;;27.65;24.12;101513.72;5041412;28;20516;-69
2021/06/13 07:49:58;;;;;;;6.70;2.93;;;;;;;27.49;25.42;101511.53;5041893;28;20474;-69
2021/06/13 07:52:25;;;;;;;4.50;2.60;;;;;;;28.51;24.78;101519.50;5042537;28;21062;-68
2021/06/13 07:54:51;;;;;;;5.63;2.93;;;;;;;28.27;24.73;101524.81;5040981;28;20498;-68
2021/06/13 07:57:18;;;;;;;4.63;2.23;;;;;;;29.71;22.72;101520.63;5042151;28;20470;-69
2021/06/13 07:59:46;;;;;;;6.27;3.30;;;;;;;29.46;22.84;101526.31;5043200;28;20743;-67
2021/06/13 08:02:13;;;;;;;6.70;3.37;;;;;;;26.28;26.08;101528.50;5041271;28;20470;-67
2021/06/13 08:04:44;;;;;;;7.03;2.33;;;;;;;25.73;27.11;101525.97;5041806;28;20462;-67
2021/06/13 08:07:10;;;;;;;6.23;2.77;;;;;;;23.28;30.02;101522.44;5041851;28;20524;-66
2021/06/13 08:09:37;;;;;;;5.70;3.07;;;;;;;22.13;33.54;101531.13;5041923;28;20998;-67
2021/06/13 08:12:05;;;;;;;4.63;2.73;;;;;;;23.38;31.16;101535.72;5042003;28;21038;-67
2021/06/13 08:14:31;;;;;;;5.70;2.80;;;;;;;25.02;30.57;101531.06;5042492;28;20513;-66
2021/06/13 08:16:59;;;;;;;6.60;3.47;;;;;;;26.74;26.10;101532.19;5042016;28;20505;-68
2021/06/13 08:19:26;;;;;;;5.07;2.63;;;;;;;28.85;22.47;101530.94;5037985;28;20971;-69
2021/06/13 08:21:53;;;;;;;6.70;2.33;;;;;;;29.73;21.26;101526.72;5038692;28;20987;-68
2021/06/13 08:24:20;;;;;;;3.70;2.37;;;;;;;28.82;22.87;101515.75;5032024;28;20455;-67
2021/06/13 08:26:46;;;;;;;3.27;1.90;;;;;;;28.63;22.75;101522.34;5037508;28;20477;-69
2021/06/13 08:29:13;;;;;;;7.27;2.50;;;;;;;28.25;23.21;101526.13;5034299;28;20545;-68
2021/06/13 08:31:40;;;;;;;4.20;2.33;;;;;;;28.71;22.53;101527.53;5026457;28;20483;-69
2021/06/13 08:34:08;;;;;;;5.13;2.00;;;;;;;28.98;22.25;101529.94;5027124;28;20529;-68
2021/06/13 08:36:34;;;;;;;3.90;1.93;;;;;;;28.62;22.35;101531.66;5034975;28;20514;-69
2021/06/13 08:39:02;;;;;;;5.40;2.40;;;;;;;29.03;22.62;101532.84;5038205;28;20465;-68
2021/06/13 08:41:28;;;;;;;4.70;2.67;;;;;;;28.04;25.33;101514.47;5033068;28;20478;-69
2021/06/13 08:43:55;;;;;;;5.83;2.90;;;;;;;28.97;23.01;101514.50;5036389;28;20466;-68
2021/06/13 08:46:23;;;;;;;4.13;2.53;;;;;;;26.40;25.82;101525.91;5035378;28;20543;-68
2021/06/13 08:48:52;;;;;;;4.70;2.90;;;;;;;25.21;28.06;101519.34;5035100;28;21019;-68
2021/06/13 08:51:21;;;;;;;4.83;2.37;;;;;;;27.37;25.15;101516.88;5040250;28;20529;-68
2021/06/13 08:53:50;;;;;;;4.53;2.30;;;;;;;28.51;24.41;101525.81;5026660;28;20474;-68
2021/06/13 08:56:18;;;;;;;3.13;2.23;;;;;;;26.11;25.95;101530.00;5040199;28;20478;-69
2021/06/13 08:58:45;;;;;;;8.90;2.90;;;;;;;24.58;28.62;101528.56;5040247;28;20885;-68
2021/06/13 09:01:13;;;;;;;4.13;2.30;;;;;;;24.99;27.77;101530.41;5039302;28;20557;-68
2021/06/13 09:03:40;;;;;;;6.23;2.57;;;;;;;27.31;23.88;101515.88;5040373;28;20449;-69
2021/06/13 09:06:07;;;;;;;8.37;2.57;;;;;;;28.92;22.66;101523.44;5037597;28;20550;-69
2021/06/13 09:08:35;;;;;;;4.67;2.30;;;;;;;28.92;21.86;101521.56;5039871;28;20545;-68
2021/06/13 09:11:03;;;;;;;4.53;2.20;;;;;;;28.34;21.13;101519.25;5041072;28;20485;-68
2021/06/13 09:13:32;;;;;;;6.70;2.77;;;;;;;29.71;20.25;101517.84;5041825;28;20535;-69
2021/06/13 09:16:00;;;;;;;5.73;1.90;;;;;;;30.46;20.67;101516.34;5039862;28;20483;-68
2021/06/13 09:18:32;;;;;;;3.60;2.03;;;;;;;29.18;21.83;101515.91;5041810;28;20426;-68
2021/06/13 09:21:00;;;;;;;3.37;2.00;;;;;;;28.52;22.12;101511.00;5040603;28;20528;-69
2021/06/13 09:23:29;;;;;;;5.50;2.30;;;;;;;28.85;22.66;101508.94;5041356;28;20430;-68
2021/06/13 09:26:01;;;;;;;5.27;2.40;;;;;;;28.32;22.86;101516.72;5040320;28;20557;-68
2021/06/13 09:28:28;;;;;;;5.17;2.40;;;;;;;27.83;24.58;101517.59;5041927;28;20481;-68
2021/06/13 09:30:55;;;;;;;6.50;2.80;;;;;;;28.99;22.82;101532.47;5039712;28;20470;-68
2021/06/13 09:33:26;;;;;;;4.30;2.33;;;;;;;28.83;23.23;101533.94;5041858;28;20476;-69
2021/06/13 09:35:53;;;;;;;5.40;2.80;;;;;;;28.35;24.62;101532.78;5040489;28;20481;-69
2021/06/13 09:38:24;;;;;;;4.00;2.23;;;;;;;29.10;22.18;101534.44;5041070;28;20453;-69
2021/06/13 09:40:54;;;;;;;5.77;2.60;;;;;;;30.20;21.27;101531.44;5040474;28;20477;-69
2021/06/13 09:43:26;;;;;;;4.37;2.47;;;;;;;29.61;21.88;101536.88;5041638;28;20450;-69
2021/06/13 09:45:56;;;;;;;6.33;2.50;;;;;;;28.54;23.26;101536.41;5039862;28;20588;-69
2021/06/13 09:48:23;;;;;;;4.67;2.00;;;;;;;28.72;24.02;101543.81;5041286;28;20525;-68
2021/06/13 09:50:51;;;;;;;4.53;2.23;;;;;;;27.20;24.89;101542.09;5040311;28;20505;-69
2021/06/13 09:53:30;;;;;;;5.70;2.60;;;;;;;27.47;25.19;101549.38;5036419;28;20494;-69
2021/06/13 09:56:19;;;;;;;4.50;2.50;;;;;;;27.73;24.67;101546.41;5040494;28;20462;-69
2021/06/13 09:58:50;;;;;;;9.53;2.57;;;;;;;27.86;24.96;101541.88;5039268;28;20529;-69
2021/06/13 10:01:17;;;;;;;7.77;2.43;;;;;;;25.71;25.72;101552.72;5039766;28;20504;-69
2021/06/13 10:03:46;;;;;;;4.50;2.47;;;;;;;26.29;25.44;101551.25;5041432;28;20481;-70
2021/06/13 10:06:14;;;;;;;3.60;2.40;;;;;;;27.71;25.20;101539.47;5040168;28;20481;-70
2021/06/13 10:08:42;;;;;;;7.20;2.90;;;;;;;28.97;22.76;101539.28;5040391;28;20500;-69
2021/06/13 10:11:09;;;;;;;4.57;2.63;;;;;;;28.91;24.11;101539.13;5042227;28;20480;-70
2021/06/13 10:13:55;;;;;;;3.33;2.33;;;;;;;28.47;24.21;101540.25;5045166;28;20431;-69
2021/06/13 10:16:35;;;;;;;5.40;2.50;;;;;;;26.29;26.42;101535.63;5042739;28;20477;-69
2021/06/13 10:19:07;;;;;;;4.60;2.33;;;;;;;27.01;25.60;101527.44;5045272;28;20468;-69
2021/06/13 10:21:36;;;;;;;5.30;2.43;;;;;;;27.04;26.17;101537.94;5044106;28;20470;-69
2021/06/13 10:24:06;;;;;;;3.60;2.03;;;;;;;26.97;26.70;101544.53;5043521;28;20450;-69
2021/06/13 10:26:33;;;;;;;6.57;2.47;;;;;;;27.51;23.46;101537.69;5044052;28;20481;-69
2021/06/13 10:29:02;;;;;;;3.30;1.93;;;;;;;27.67;23.86;101535.47;5045068;28;20458;-69
2021/06/13 10:31:29;;;;;;;4.93;2.67;;;;;;;27.41;25.38;101540.09;5043076;28;20562;-69
2021/06/13 10:33:56;;;;;;;4.57;2.33;;;;;;;27.46;26.42;101537.53;5045026;28;21074;-69
2021/06/13 10:36:22;;;;;;;9.43;3.53;;;;;;;26.95;26.45;101541.19;5046635;28;20481;-69
2021/06/13 10:38:53;;;;;;;4.67;2.30;;;;;;;26.92;25.44;101544.34;5063614;28;20448;-69
2021/06/13 10:41:19;;;;;;;5.33;2.73;;;;;;;26.58;25.31;101538.97;5051012;28;20478;-69
2021/06/13 10:43:46;;;;;;;7.27;2.27;;;;;;;26.27;25.97;101542.41;5045142;28;20434;-69
2021/06/13 10:46:18;;;;;;;5.87;2.20;;;;;;;27.10;25.29;101536.25;5042557;28;20564;-70
2021/06/13 10:48:49;;;;;;;5.87;2.60;;;;;;;28.06;25.94;101539.00;5044417;28;20508;-70
2021/06/13 10:51:33;;;;;;;5.33;2.50;;;;;;;26.02;26.32;101534.84;5044033;28;20473;-70
2021/06/13 10:54:25;;;;;;;5.17;2.33;;;;;;;24.66;29.11;101535.75;5042405;28;20565;-69
2021/06/13 10:56:53;;;;;;;5.83;2.07;;;;;;;26.12;27.76;101523.44;5043104;28;20569;-70
2021/06/13 10:59:21;;;;;;;5.57;2.50;;;;;;;26.63;27.39;101520.00;5044540;28;20639;-70
2021/06/13 11:02:03;;;;;;;5.37;2.50;;;;;;;26.27;27.40;101523.22;5042754;28;21146;-69
2021/06/13 11:04:47;;;;;;;4.73;2.30;;;;;;;26.21;26.10;101526.81;5044742;28;20427;-69
2021/06/13 11:07:52;;;;;;;4.13;2.40;;;;;;;24.74;28.73;101521.91;5042979;28;20503;-69
2021/06/13 11:10:18;;;;;;;5.73;3.00;;;;;;;25.22;28.64;101520.16;5024650;28;20954;-68
2021/06/13 11:12:48;;;;;;;7.60;2.80;;;;;;;25.26;28.96;101518.72;5043102;28;21098;-68
2021/06/13 11:15:18;;;;;;;5.10;2.33;;;;;;;26.18;27.83;101522.59;5042810;28;20474;-66
2021/06/13 11:17:57;;;;;;;5.50;2.50;;;;;;;25.88;28.31;101516.69;5043249;28;20473;-67
2021/06/13 11:20:35;;;;;;;6.07;2.60;;;;;;;25.36;28.57;101519.16;5043519;28;20450;-67
2021/06/13 11:23:06;;;;;;;5.20;2.13;;;;;;;25.36;29.67;101516.44;5023937;28;20427;-69
2021/06/13 11:25:36;;;;;;;6.63;2.20;;;;;;;25.99;28.97;101526.19;5023005;28;20991;-68
2021/06/13 11:28:17;;;;;;;7.63;2.67;;;;;;;26.54;27.17;101517.66;5043797;28;20854;-68
2021/06/13 11:30:45;;;;;;;6.50;2.60;;;;;;;27.00;26.38;101514.75;5040845;28;20515;-68